Aérodrome :
LOGIN :

S'inscrire | Disclaimer

   EN    FR    IT 

 










Légende :    VFR   VFR Marginal   IFR   IFR Intensif   IFR Très Intensif
Visi : 
Plafond : 
>= 8 km
>= 3000ft
5 à 8 km
1000 à 3000 ft
1500m à 5 km
500 à 1000 ft
800 à 1500m
200 à 500 ft
< 800m
< 200 ft
Symboles :   Orages  Brouillard  Fortes neiges  Fortes précipitations  Vent > 20 kt
SIGMETs :   Divers  Orages  Givrage  Turbulence  Onde Orograph.  Cendres Volcan.







- Altitude de l'aérodrome : -15 ft
- Code IATA : RTM


EHRD - Rotterdam Zestienhoven

DERNIER METAR :
  • 181455Z AUTO 22008KT 180V250 9999 OVC030 21/15 Q1010 NOSIG

METARs EXPIRÉS :
  • 181425Z AUTO 23009KT 180V270 9999 FEW037 BKN046 22/13 Q1010 NOSIG
  • 181355Z AUTO 26011KT 220V310 9999 NSC 21/13 Q1011 NOSIG
  • 181325Z AUTO 25012KT 220V280 9999 FEW026 SCT029 BKN033 20/15 Q1010 NOSIG
  • 181255Z AUTO 25012KT 220V280 9999 FEW036 22/15 Q1010 NOSIG
  • 181225Z AUTO 25012KT 9999 FEW027 22/15 Q1010 NOSIG
  • 181155Z AUTO 23010KT 200V270 9999 BKN030 BKN035 21/14 Q1010 NOSIG

TAF TAF EHRD
Valide du 18 à 12h jusqu'au 19 à 18h UTC


181104Z 1812/1918 25013KT 9999 SCT025
BECMG 1815/1818 23006KT 6000 RA BKN018 OVC025
PROB40 1818/1821 4500 -RA -SHRA BKN008 SCT018TCU
BECMG 1901/1904 1200 BR NSC
BECMG 1905/1908 9999 NSW SCT020
BECMG 1912/1915 27010KT
Pas de NOTAMs connus pour ce terrain.



MET'MAP, la Météo Aéronautique d'un coup d'oeil ! - Copyright ORBIFLY Décembre 2007 - Disclaimer

ORBIFLY MET'MAP TEAM :

Programmation & Développement : Alexandra Zaïnal
Conception & Développement : Baudouin d'Aumeries
Co-Programmation & Développement : Marc-Olivier Méhu
Soutien technique & logistique : Manuel Goepfert

Contact : metmap@orbifly.com




SOURCES & CREDITS :

   NOAA